sensor_id;sensor_type;location;lat;lon;timestamp;P1;durP1;ratioP1;P2;durP2;ratioP2
42192;SDS011;52467;40.114;18.306;2023-04-09T00:01:05;14.48;;;9.27;;
42192;SDS011;52467;40.114;18.306;2023-04-09T00:03:34;14.93;;;8.57;;
42192;SDS011;52467;40.114;18.306;2023-04-09T00:06:02;19.03;;;8.37;;
42192;SDS011;52467;40.114;18.306;2023-04-09T00:08:30;15.90;;;8.68;;
42192;SDS011;52467;40.114;18.306;2023-04-09T00:10:58;14.52;;;8.13;;
42192;SDS011;52467;40.114;18.306;2023-04-09T00:13:25;17.42;;;9.20;;
42192;SDS011;52467;40.114;18.306;2023-04-09T00:16:01;14.80;;;8.38;;
42192;SDS011;52467;40.114;18.306;2023-04-09T00:18:28;18.95;;;8.88;;
42192;SDS011;52467;40.114;18.306;2023-04-09T00:20:56;18.60;;;8.13;;
42192;SDS011;52467;40.114;18.306;2023-04-09T00:23:23;16.00;;;8.73;;
42192;SDS011;52467;40.114;18.306;2023-04-09T00:25:51;17.20;;;8.18;;
42192;SDS011;52467;40.114;18.306;2023-04-09T00:28:18;18.25;;;8.02;;
42192;SDS011;52467;40.114;18.306;2023-04-09T00:30:45;13.48;;;7.75;;
42192;SDS011;52467;40.114;18.306;2023-04-09T00:33:13;13.98;;;7.45;;
42192;SDS011;52467;40.114;18.306;2023-04-09T00:35:43;11.70;;;6.82;;
42192;SDS011;52467;40.114;18.306;2023-04-09T00:38:10;11.00;;;5.50;;
42192;SDS011;52467;40.114;18.306;2023-04-09T00:40:38;7.57;;;5.13;;
42192;SDS011;52467;40.114;18.306;2023-04-09T00:43:05;8.55;;;4.80;;
42192;SDS011;52467;40.114;18.306;2023-04-09T00:45:34;6.57;;;3.70;;
42192;SDS011;52467;40.114;18.306;2023-04-09T00:48:02;4.30;;;2.87;;
42192;SDS011;52467;40.114;18.306;2023-04-09T00:50:29;4.53;;;2.55;;
42192;SDS011;52467;40.114;18.306;2023-04-09T00:52:57;5.03;;;2.50;;
42192;SDS011;52467;40.114;18.306;2023-04-09T00:55:24;4.32;;;2.70;;
42192;SDS011;52467;40.114;18.306;2023-04-09T00:57:51;3.70;;;2.53;;
42192;SDS011;52467;40.114;18.306;2023-04-09T01:00:19;7.90;;;2.95;;
42192;SDS011;52467;40.114;18.306;2023-04-09T01:02:46;7.85;;;2.90;;
42192;SDS011;52467;40.114;18.306;2023-04-09T01:05:14;7.10;;;2.97;;
42192;SDS011;52467;40.114;18.306;2023-04-09T01:07:46;5.38;;;3.38;;
42192;SDS011;52467;40.114;18.306;2023-04-09T01:13:11;4.80;;;2.80;;
42192;SDS011;52467;40.114;18.306;2023-04-09T01:15:53;5.28;;;3.00;;
42192;SDS011;52467;40.114;18.306;2023-04-09T01:18:25;6.00;;;2.63;;
42192;SDS011;52467;40.114;18.306;2023-04-09T01:20:58;4.18;;;2.88;;
42192;SDS011;52467;40.114;18.306;2023-04-09T01:28:53;4.50;;;3.05;;
42192;SDS011;52467;40.114;18.306;2023-04-09T01:31:25;3.88;;;3.03;;
42192;SDS011;52467;40.114;18.306;2023-04-09T01:33:57;5.85;;;3.38;;
42192;SDS011;52467;40.114;18.306;2023-04-09T01:36:26;5.60;;;3.45;;
42192;SDS011;52467;40.114;18.306;2023-04-09T01:38:54;5.17;;;3.70;;
42192;SDS011;52467;40.114;18.306;2023-04-09T01:41:22;5.45;;;3.58;;
42192;SDS011;52467;40.114;18.306;2023-04-09T01:43:52;5.60;;;3.53;;
42192;SDS011;52467;40.114;18.306;2023-04-09T01:46:20;6.13;;;3.70;;
42192;SDS011;52467;40.114;18.306;2023-04-09T01:48:48;5.13;;;3.60;;
42192;SDS011;52467;40.114;18.306;2023-04-09T01:51:15;5.65;;;3.38;;
42192;SDS011;52467;40.114;18.306;2023-04-09T01:53:43;4.85;;;3.17;;
42192;SDS011;52467;40.114;18.306;2023-04-09T01:56:10;6.13;;;3.05;;
42192;SDS011;52467;40.114;18.306;2023-04-09T01:58:38;5.43;;;3.63;;
42192;SDS011;52467;40.114;18.306;2023-04-09T02:01:19;3.70;;;2.80;;
42192;SDS011;52467;40.114;18.306;2023-04-09T02:03:55;3.40;;;2.60;;
42192;SDS011;52467;40.114;18.306;2023-04-09T02:08:57;3.05;;;2.38;;
42192;SDS011;52467;40.114;18.306;2023-04-09T02:11:28;3.10;;;2.10;;
42192;SDS011;52467;40.114;18.306;2023-04-09T02:13:56;2.10;;;1.83;;
42192;SDS011;52467;40.114;18.306;2023-04-09T02:16:24;5.18;;;2.30;;
42192;SDS011;52467;40.114;18.306;2023-04-09T02:18:55;3.00;;;1.80;;
42192;SDS011;52467;40.114;18.306;2023-04-09T02:21:22;3.72;;;1.92;;
42192;SDS011;52467;40.114;18.306;2023-04-09T02:23:50;2.50;;;1.80;;
42192;SDS011;52467;40.114;18.306;2023-04-09T02:26:17;4.80;;;1.95;;
42192;SDS011;52467;40.114;18.306;2023-04-09T02:28:44;3.70;;;2.05;;
42192;SDS011;52467;40.114;18.306;2023-04-09T02:31:13;2.50;;;2.00;;
42192;SDS011;52467;40.114;18.306;2023-04-09T02:33:40;3.42;;;2.10;;
42192;SDS011;52467;40.114;18.306;2023-04-09T02:36:11;2.85;;;2.10;;
42192;SDS011;52467;40.114;18.306;2023-04-09T02:38:39;2.60;;;2.20;;
42192;SDS011;52467;40.114;18.306;2023-04-09T02:41:07;3.58;;;2.00;;
42192;SDS011;52467;40.114;18.306;2023-04-09T02:43:35;4.77;;;2.23;;
42192;SDS011;52467;40.114;18.306;2023-04-09T02:46:03;2.25;;;2.03;;
42192;SDS011;52467;40.114;18.306;2023-04-09T02:48:32;2.90;;;2.20;;
42192;SDS011;52467;40.114;18.306;2023-04-09T02:50:59;4.38;;;2.67;;
42192;SDS011;52467;40.114;18.306;2023-04-09T02:53:27;3.00;;;2.33;;
42192;SDS011;52467;40.114;18.306;2023-04-09T02:55:54;3.58;;;2.40;;
42192;SDS011;52467;40.114;18.306;2023-04-09T02:58:21;4.25;;;2.58;;
42192;SDS011;52467;40.114;18.306;2023-04-09T03:00:49;4.78;;;2.65;;
42192;SDS011;52467;40.114;18.306;2023-04-09T03:03:16;5.80;;;3.00;;
42192;SDS011;52467;40.114;18.306;2023-04-09T03:05:44;4.15;;;2.80;;
42192;SDS011;52467;40.114;18.306;2023-04-09T03:08:11;5.68;;;3.00;;
42192;SDS011;52467;40.114;18.306;2023-04-09T03:10:38;4.90;;;3.20;;
42192;SDS011;52467;40.114;18.306;2023-04-09T03:13:06;6.28;;;3.22;;
42192;SDS011;52467;40.114;18.306;2023-04-09T03:15:33;6.30;;;3.15;;
42192;SDS011;52467;40.114;18.306;2023-04-09T03:18:01;5.28;;;2.80;;
42192;SDS011;52467;40.114;18.306;2023-04-09T03:20:29;5.80;;;3.13;;
42192;SDS011;52467;40.114;18.306;2023-04-09T03:22:57;5.95;;;3.50;;
42192;SDS011;52467;40.114;18.306;2023-04-09T03:25:32;5.90;;;3.40;;
42192;SDS011;52467;40.114;18.306;2023-04-09T03:28:08;5.17;;;2.70;;
42192;SDS011;52467;40.114;18.306;2023-04-09T03:30:43;5.13;;;3.05;;
42192;SDS011;52467;40.114;18.306;2023-04-09T03:33:11;3.78;;;3.03;;
42192;SDS011;52467;40.114;18.306;2023-04-09T03:35:49;5.80;;;3.05;;
42192;SDS011;52467;40.114;18.306;2023-04-09T03:38:25;6.50;;;2.97;;
42192;SDS011;52467;40.114;18.306;2023-04-09T03:40:54;10.80;;;3.25;;
42192;SDS011;52467;40.114;18.306;2023-04-09T03:43:22;9.15;;;3.20;;
42192;SDS011;52467;40.114;18.306;2023-04-09T03:45:51;5.68;;;3.20;;
42192;SDS011;52467;40.114;18.306;2023-04-09T03:48:25;8.05;;;2.92;;
42192;SDS011;52467;40.114;18.306;2023-04-09T03:50:53;6.07;;;2.97;;
42192;SDS011;52467;40.114;18.306;2023-04-09T03:53:31;4.45;;;3.10;;
42192;SDS011;52467;40.114;18.306;2023-04-09T03:56:03;5.40;;;2.73;;
42192;SDS011;52467;40.114;18.306;2023-04-09T03:58:32;4.85;;;2.58;;
42192;SDS011;52467;40.114;18.306;2023-04-09T04:01:00;6.73;;;2.50;;
42192;SDS011;52467;40.114;18.306;2023-04-09T04:03:36;4.95;;;2.45;;
42192;SDS011;52467;40.114;18.306;2023-04-09T04:06:14;8.02;;;3.00;;
42192;SDS011;52467;40.114;18.306;2023-04-09T04:08:50;4.20;;;2.50;;
42192;SDS011;52467;40.114;18.306;2023-04-09T04:11:22;4.72;;;2.60;;
42192;SDS011;52467;40.114;18.306;2023-04-09T04:13:53;5.57;;;2.55;;
42192;SDS011;52467;40.114;18.306;2023-04-09T04:16:23;4.85;;;2.78;;
42192;SDS011;52467;40.114;18.306;2023-04-09T04:18:52;5.95;;;3.20;;
42192;SDS011;52467;40.114;18.306;2023-04-09T04:21:20;6.47;;;3.03;;
42192;SDS011;52467;40.114;18.306;2023-04-09T04:23:55;6.85;;;2.70;;
42192;SDS011;52467;40.114;18.306;2023-04-09T04:26:26;4.90;;;2.72;;
42192;SDS011;52467;40.114;18.306;2023-04-09T04:28:53;5.50;;;2.80;;
42192;SDS011;52467;40.114;18.306;2023-04-09T04:31:36;6.35;;;2.90;;
42192;SDS011;52467;40.114;18.306;2023-04-09T04:34:04;4.72;;;3.03;;
42192;SDS011;52467;40.114;18.306;2023-04-09T04:36:32;4.40;;;2.70;;
42192;SDS011;52467;40.114;18.306;2023-04-09T04:39:03;4.53;;;2.33;;
42192;SDS011;52467;40.114;18.306;2023-04-09T04:41:52;8.13;;;2.67;;
42192;SDS011;52467;40.114;18.306;2023-04-09T04:44:24;8.15;;;2.70;;
42192;SDS011;52467;40.114;18.306;2023-04-09T04:47:00;5.80;;;3.10;;
42192;SDS011;52467;40.114;18.306;2023-04-09T04:49:27;8.65;;;3.28;;
42192;SDS011;52467;40.114;18.306;2023-04-09T04:51:56;6.80;;;2.90;;
42192;SDS011;52467;40.114;18.306;2023-04-09T04:54:24;9.25;;;3.38;;
42192;SDS011;52467;40.114;18.306;2023-04-09T04:56:55;7.63;;;3.17;;
42192;SDS011;52467;40.114;18.306;2023-04-09T04:59:31;9.93;;;3.30;;
42192;SDS011;52467;40.114;18.306;2023-04-09T05:02:01;9.83;;;2.63;;
42192;SDS011;52467;40.114;18.306;2023-04-09T05:04:35;10.10;;;3.17;;
42192;SDS011;52467;40.114;18.306;2023-04-09T05:07:04;8.63;;;3.10;;
42192;SDS011;52467;40.114;18.306;2023-04-09T05:09:33;10.40;;;2.95;;
42192;SDS011;52467;40.114;18.306;2023-04-09T05:12:05;8.57;;;3.00;;
42192;SDS011;52467;40.114;18.306;2023-04-09T05:14:33;9.88;;;3.08;;
42192;SDS011;52467;40.114;18.306;2023-04-09T05:17:01;10.48;;;2.97;;
42192;SDS011;52467;40.114;18.306;2023-04-09T05:19:39;6.28;;;2.72;;
42192;SDS011;52467;40.114;18.306;2023-04-09T05:22:08;8.35;;;2.67;;
42192;SDS011;52467;40.114;18.306;2023-04-09T05:24:35;8.70;;;2.78;;
42192;SDS011;52467;40.114;18.306;2023-04-09T05:27:04;5.25;;;2.72;;
42192;SDS011;52467;40.114;18.306;2023-04-09T05:29:31;9.18;;;2.95;;
42192;SDS011;52467;40.114;18.306;2023-04-09T05:31:59;7.80;;;2.65;;
42192;SDS011;52467;40.114;18.306;2023-04-09T05:34:34;7.57;;;2.93;;
42192;SDS011;52467;40.114;18.306;2023-04-09T05:37:03;10.00;;;2.88;;
42192;SDS011;52467;40.114;18.306;2023-04-09T05:39:31;7.50;;;2.90;;
42192;SDS011;52467;40.114;18.306;2023-04-09T05:42:00;11.50;;;2.85;;
42192;SDS011;52467;40.114;18.306;2023-04-09T05:44:56;8.50;;;2.78;;
42192;SDS011;52467;40.114;18.306;2023-04-09T05:47:23;10.68;;;3.55;;
42192;SDS011;52467;40.114;18.306;2023-04-09T05:50:00;10.45;;;3.15;;
42192;SDS011;52467;40.114;18.306;2023-04-09T05:52:28;5.47;;;2.63;;
42192;SDS011;52467;40.114;18.306;2023-04-09T05:54:56;6.50;;;3.05;;
42192;SDS011;52467;40.114;18.306;2023-04-09T05:57:36;10.48;;;3.13;;
42192;SDS011;52467;40.114;18.306;2023-04-09T06:00:04;8.88;;;2.95;;
42192;SDS011;52467;40.114;18.306;2023-04-09T06:02:41;9.27;;;3.08;;
42192;SDS011;52467;40.114;18.306;2023-04-09T06:05:10;9.80;;;2.80;;
42192;SDS011;52467;40.114;18.306;2023-04-09T06:07:37;9.10;;;3.30;;
42192;SDS011;52467;40.114;18.306;2023-04-09T06:10:05;10.63;;;3.20;;
42192;SDS011;52467;40.114;18.306;2023-04-09T06:12:33;7.60;;;3.10;;
42192;SDS011;52467;40.114;18.306;2023-04-09T06:15:05;6.93;;;3.20;;
42192;SDS011;52467;40.114;18.306;2023-04-09T06:17:33;10.02;;;3.53;;
42192;SDS011;52467;40.114;18.306;2023-04-09T06:20:00;12.70;;;3.30;;
42192;SDS011;52467;40.114;18.306;2023-04-09T06:22:28;11.90;;;2.70;;
42192;SDS011;52467;40.114;18.306;2023-04-09T06:24:55;7.65;;;2.92;;
42192;SDS011;52467;40.114;18.306;2023-04-09T06:27:22;6.68;;;2.70;;
42192;SDS011;52467;40.114;18.306;2023-04-09T06:29:50;10.80;;;4.40;;
42192;SDS011;52467;40.114;18.306;2023-04-09T06:32:17;8.50;;;4.53;;
42192;SDS011;52467;40.114;18.306;2023-04-09T06:34:45;7.18;;;3.28;;
42192;SDS011;52467;40.114;18.306;2023-04-09T06:37:12;8.15;;;2.90;;
42192;SDS011;52467;40.114;18.306;2023-04-09T06:39:39;5.70;;;2.80;;
42192;SDS011;52467;40.114;18.306;2023-04-09T06:42:10;5.75;;;2.65;;
42192;SDS011;52467;40.114;18.306;2023-04-09T06:44:47;5.63;;;2.50;;
42192;SDS011;52467;40.114;18.306;2023-04-09T06:47:15;10.75;;;2.60;;
42192;SDS011;52467;40.114;18.306;2023-04-09T06:49:42;11.68;;;2.80;;
42192;SDS011;52467;40.114;18.306;2023-04-09T06:52:10;7.60;;;3.00;;
42192;SDS011;52467;40.114;18.306;2023-04-09T06:54:37;9.63;;;3.03;;
42192;SDS011;52467;40.114;18.306;2023-04-09T06:57:05;7.35;;;2.30;;
42192;SDS011;52467;40.114;18.306;2023-04-09T06:59:33;6.70;;;2.40;;
42192;SDS011;52467;40.114;18.306;2023-04-09T07:02:00;8.52;;;2.53;;
42192;SDS011;52467;40.114;18.306;2023-04-09T07:04:27;5.43;;;2.40;;
42192;SDS011;52467;40.114;18.306;2023-04-09T07:06:55;7.78;;;2.67;;
42192;SDS011;52467;40.114;18.306;2023-04-09T07:09:24;6.03;;;2.10;;
42192;SDS011;52467;40.114;18.306;2023-04-09T07:11:52;8.93;;;2.58;;
42192;SDS011;52467;40.114;18.306;2023-04-09T07:14:19;10.73;;;2.67;;
42192;SDS011;52467;40.114;18.306;2023-04-09T07:16:46;8.00;;;2.20;;
42192;SDS011;52467;40.114;18.306;2023-04-09T07:19:14;9.68;;;2.47;;
42192;SDS011;52467;40.114;18.306;2023-04-09T07:21:41;6.57;;;2.45;;
42192;SDS011;52467;40.114;18.306;2023-04-09T07:24:08;6.80;;;2.47;;
42192;SDS011;52467;40.114;18.306;2023-04-09T07:26:35;6.60;;;2.30;;
42192;SDS011;52467;40.114;18.306;2023-04-09T07:29:03;9.68;;;2.15;;
42192;SDS011;52467;40.114;18.306;2023-04-09T07:31:30;3.65;;;2.15;;
42192;SDS011;52467;40.114;18.306;2023-04-09T07:33:59;9.73;;;2.50;;
42192;SDS011;52467;40.114;18.306;2023-04-09T07:36:26;7.78;;;2.83;;
42192;SDS011;52467;40.114;18.306;2023-04-09T07:38:54;7.47;;;2.67;;
42192;SDS011;52467;40.114;18.306;2023-04-09T07:41:21;9.32;;;3.38;;
42192;SDS011;52467;40.114;18.306;2023-04-09T07:43:49;9.45;;;3.28;;
42192;SDS011;52467;40.114;18.306;2023-04-09T07:46:19;11.68;;;3.70;;
42192;SDS011;52467;40.114;18.306;2023-04-09T07:48:49;8.43;;;3.25;;
42192;SDS011;52467;40.114;18.306;2023-04-09T07:51:17;7.30;;;2.92;;
42192;SDS011;52467;40.114;18.306;2023-04-09T07:53:45;6.37;;;2.60;;
42192;SDS011;52467;40.114;18.306;2023-04-09T07:56:13;8.63;;;2.70;;
42192;SDS011;52467;40.114;18.306;2023-04-09T07:58:40;7.40;;;2.40;;
42192;SDS011;52467;40.114;18.306;2023-04-09T08:01:07;6.53;;;2.58;;
42192;SDS011;52467;40.114;18.306;2023-04-09T08:03:35;4.97;;;2.10;;
42192;SDS011;52467;40.114;18.306;2023-04-09T08:06:03;4.43;;;1.90;;
42192;SDS011;52467;40.114;18.306;2023-04-09T08:08:30;10.03;;;2.30;;
42192;SDS011;52467;40.114;18.306;2023-04-09T08:10:57;8.98;;;2.00;;
42192;SDS011;52467;40.114;18.306;2023-04-09T08:13:25;5.07;;;1.88;;
42192;SDS011;52467;40.114;18.306;2023-04-09T08:15:52;4.75;;;1.77;;
42192;SDS011;52467;40.114;18.306;2023-04-09T08:18:20;7.85;;;1.92;;
42192;SDS011;52467;40.114;18.306;2023-04-09T08:20:47;4.72;;;1.60;;
42192;SDS011;52467;40.114;18.306;2023-04-09T08:23:14;8.50;;;2.20;;
42192;SDS011;52467;40.114;18.306;2023-04-09T08:25:42;4.95;;;1.90;;
42192;SDS011;52467;40.114;18.306;2023-04-09T08:28:09;3.20;;;1.88;;
42192;SDS011;52467;40.114;18.306;2023-04-09T08:30:37;3.72;;;1.50;;
42192;SDS011;52467;40.114;18.306;2023-04-09T08:33:04;3.25;;;1.25;;
42192;SDS011;52467;40.114;18.306;2023-04-09T08:35:32;1.90;;;1.30;;
42192;SDS011;52467;40.114;18.306;2023-04-09T08:37:59;3.60;;;1.50;;
42192;SDS011;52467;40.114;18.306;2023-04-09T08:40:27;3.83;;;1.40;;
42192;SDS011;52467;40.114;18.306;2023-04-09T08:42:54;3.20;;;1.83;;
42192;SDS011;52467;40.114;18.306;2023-04-09T08:45:23;4.05;;;1.40;;
42192;SDS011;52467;40.114;18.306;2023-04-09T08:47:51;5.30;;;1.77;;
42192;SDS011;52467;40.114;18.306;2023-04-09T08:50:21;5.95;;;1.80;;
42192;SDS011;52467;40.114;18.306;2023-04-09T08:52:49;6.65;;;1.83;;
42192;SDS011;52467;40.114;18.306;2023-04-09T08:55:17;5.30;;;1.80;;
42192;SDS011;52467;40.114;18.306;2023-04-09T08:57:44;4.00;;;1.70;;
42192;SDS011;52467;40.114;18.306;2023-04-09T09:00:12;1.75;;;1.20;;
42192;SDS011;52467;40.114;18.306;2023-04-09T09:03:01;2.60;;;1.27;;
42192;SDS011;52467;40.114;18.306;2023-04-09T09:05:34;3.00;;;1.40;;
42192;SDS011;52467;40.114;18.306;2023-04-09T09:08:03;3.63;;;1.40;;
42192;SDS011;52467;40.114;18.306;2023-04-09T09:10:41;2.90;;;1.48;;
42192;SDS011;52467;40.114;18.306;2023-04-09T09:13:16;3.03;;;1.60;;
42192;SDS011;52467;40.114;18.306;2023-04-09T09:15:44;2.42;;;1.30;;
42192;SDS011;52467;40.114;18.306;2023-04-09T09:18:16;2.00;;;1.30;;
42192;SDS011;52467;40.114;18.306;2023-04-09T09:20:44;1.77;;;1.20;;
42192;SDS011;52467;40.114;18.306;2023-04-09T09:23:11;1.85;;;1.20;;
42192;SDS011;52467;40.114;18.306;2023-04-09T09:25:39;2.23;;;1.30;;
42192;SDS011;52467;40.114;18.306;2023-04-09T09:28:11;2.90;;;1.40;;
42192;SDS011;52467;40.114;18.306;2023-04-09T09:30:38;2.20;;;1.50;;
42192;SDS011;52467;40.114;18.306;2023-04-09T09:33:09;2.53;;;1.40;;
42192;SDS011;52467;40.114;18.306;2023-04-09T09:35:51;2.22;;;1.40;;
42192;SDS011;52467;40.114;18.306;2023-04-09T09:38:19;1.50;;;1.10;;
42192;SDS011;52467;40.114;18.306;2023-04-09T09:40:47;4.43;;;1.80;;
42192;SDS011;52467;40.114;18.306;2023-04-09T09:43:15;3.22;;;1.58;;
42192;SDS011;52467;40.114;18.306;2023-04-09T09:45:46;5.20;;;2.00;;
42192;SDS011;52467;40.114;18.306;2023-04-09T09:48:14;2.65;;;1.65;;
42192;SDS011;52467;40.114;18.306;2023-04-09T09:50:41;1.87;;;1.40;;
42192;SDS011;52467;40.114;18.306;2023-04-09T09:53:09;4.38;;;1.90;;
42192;SDS011;52467;40.114;18.306;2023-04-09T09:55:38;2.05;;;1.25;;
42192;SDS011;52467;40.114;18.306;2023-04-09T09:58:16;3.10;;;1.35;;
42192;SDS011;52467;40.114;18.306;2023-04-09T10:01:07;0.95;;;0.85;;
42192;SDS011;52467;40.114;18.306;2023-04-09T10:03:37;2.42;;;1.08;;
42192;SDS011;52467;40.114;18.306;2023-04-09T10:06:06;1.40;;;1.08;;
42192;SDS011;52467;40.114;18.306;2023-04-09T10:08:33;2.10;;;1.30;;
42192;SDS011;52467;40.114;18.306;2023-04-09T10:11:04;3.63;;;1.70;;
42192;SDS011;52467;40.114;18.306;2023-04-09T10:13:40;5.32;;;2.13;;
42192;SDS011;52467;40.114;18.306;2023-04-09T10:16:12;3.88;;;2.38;;
42192;SDS011;52467;40.114;18.306;2023-04-09T10:18:39;2.13;;;1.65;;
42192;SDS011;52467;40.114;18.306;2023-04-09T10:21:14;3.67;;;1.80;;
42192;SDS011;52467;40.114;18.306;2023-04-09T10:23:58;3.38;;;1.88;;
42192;SDS011;52467;40.114;18.306;2023-04-09T10:26:26;5.55;;;2.95;;
42192;SDS011;52467;40.114;18.306;2023-04-09T10:29:02;3.88;;;1.50;;
42192;SDS011;52467;40.114;18.306;2023-04-09T10:34:17;2.85;;;1.63;;
42192;SDS011;52467;40.114;18.306;2023-04-09T10:36:57;4.47;;;1.73;;
42192;SDS011;52467;40.114;18.306;2023-04-09T10:39:26;3.67;;;1.50;;
42192;SDS011;52467;40.114;18.306;2023-04-09T10:41:54;4.70;;;1.30;;
42192;SDS011;52467;40.114;18.306;2023-04-09T10:44:23;2.17;;;1.23;;
42192;SDS011;52467;40.114;18.306;2023-04-09T10:46:53;2.15;;;1.50;;
42192;SDS011;52467;40.114;18.306;2023-04-09T10:49:22;1.63;;;0.90;;
42192;SDS011;52467;40.114;18.306;2023-04-09T10:52:02;2.13;;;0.80;;
42192;SDS011;52467;40.114;18.306;2023-04-09T10:54:42;2.90;;;1.40;;
42192;SDS011;52467;40.114;18.306;2023-04-09T10:57:15;2.05;;;0.93;;
42192;SDS011;52467;40.114;18.306;2023-04-09T10:59:45;2.13;;;1.25;;
42192;SDS011;52467;40.114;18.306;2023-04-09T11:03:05;2.22;;;0.90;;
42192;SDS011;52467;40.114;18.306;2023-04-09T11:07:44;2.83;;;0.98;;
42192;SDS011;52467;40.114;18.306;2023-04-09T11:10:15;2.15;;;1.25;;
42192;SDS011;52467;40.114;18.306;2023-04-09T11:12:42;1.90;;;0.90;;
42192;SDS011;52467;40.114;18.306;2023-04-09T11:15:16;1.70;;;0.75;;
42192;SDS011;52467;40.114;18.306;2023-04-09T11:17:46;2.28;;;0.98;;
42192;SDS011;52467;40.114;18.306;2023-04-09T11:20:20;1.70;;;1.20;;
42192;SDS011;52467;40.114;18.306;2023-04-09T11:22:52;2.33;;;1.00;;
42192;SDS011;52467;40.114;18.306;2023-04-09T11:25:27;2.63;;;1.00;;
42192;SDS011;52467;40.114;18.306;2023-04-09T11:27:56;3.63;;;2.03;;
42192;SDS011;52467;40.114;18.306;2023-04-09T11:30:24;2.15;;;1.15;;
42192;SDS011;52467;40.114;18.306;2023-04-09T11:32:51;4.20;;;1.00;;
42192;SDS011;52467;40.114;18.306;2023-04-09T11:35:19;2.05;;;1.00;;
42192;SDS011;52467;40.114;18.306;2023-04-09T11:37:48;3.22;;;1.50;;
42192;SDS011;52467;40.114;18.306;2023-04-09T11:40:19;3.17;;;1.20;;
42192;SDS011;52467;40.114;18.306;2023-04-09T11:42:52;3.20;;;1.20;;
42192;SDS011;52467;40.114;18.306;2023-04-09T11:45:21;1.95;;;0.90;;
42192;SDS011;52467;40.114;18.306;2023-04-09T11:47:54;2.08;;;0.90;;
42192;SDS011;52467;40.114;18.306;2023-04-09T11:50:21;3.10;;;0.90;;
42192;SDS011;52467;40.114;18.306;2023-04-09T11:52:49;0.80;;;0.60;;
42192;SDS011;52467;40.114;18.306;2023-04-09T11:55:26;2.58;;;0.60;;
42192;SDS011;52467;40.114;18.306;2023-04-09T11:57:58;1.15;;;0.70;;
42192;SDS011;52467;40.114;18.306;2023-04-09T12:00:26;2.10;;;0.90;;
42192;SDS011;52467;40.114;18.306;2023-04-09T12:02:58;1.15;;;0.65;;
42192;SDS011;52467;40.114;18.306;2023-04-09T12:05:31;1.20;;;0.60;;
42192;SDS011;52467;40.114;18.306;2023-04-09T12:08:02;0.67;;;0.50;;
42192;SDS011;52467;40.114;18.306;2023-04-09T12:10:32;1.55;;;0.60;;
42192;SDS011;52467;40.114;18.306;2023-04-09T12:13:02;1.70;;;0.70;;
42192;SDS011;52467;40.114;18.306;2023-04-09T12:15:30;2.65;;;1.20;;
42192;SDS011;52467;40.114;18.306;2023-04-09T12:17:59;2.40;;;1.10;;
42192;SDS011;52467;40.114;18.306;2023-04-09T12:20:28;1.40;;;1.00;;
42192;SDS011;52467;40.114;18.306;2023-04-09T12:22:56;1.75;;;0.85;;
42192;SDS011;52467;40.114;18.306;2023-04-09T12:25:26;1.50;;;0.88;;
42192;SDS011;52467;40.114;18.306;2023-04-09T12:27:54;2.38;;;1.00;;
42192;SDS011;52467;40.114;18.306;2023-04-09T12:30:22;0.90;;;0.63;;
42192;SDS011;52467;40.114;18.306;2023-04-09T12:32:50;1.33;;;0.80;;
42192;SDS011;52467;40.114;18.306;2023-04-09T12:35:18;2.53;;;0.95;;
42192;SDS011;52467;40.114;18.306;2023-04-09T12:37:47;2.38;;;1.35;;
42192;SDS011;52467;40.114;18.306;2023-04-09T12:40:14;1.83;;;1.05;;
42192;SDS011;52467;40.114;18.306;2023-04-09T12:42:43;1.95;;;1.00;;
42192;SDS011;52467;40.114;18.306;2023-04-09T12:45:15;2.22;;;1.00;;
42192;SDS011;52467;40.114;18.306;2023-04-09T12:47:43;3.60;;;1.67;;
42192;SDS011;52467;40.114;18.306;2023-04-09T12:50:12;2.50;;;1.40;;
42192;SDS011;52467;40.114;18.306;2023-04-09T12:52:40;1.52;;;1.00;;
42192;SDS011;52467;40.114;18.306;2023-04-09T12:55:08;1.90;;;1.30;;
42192;SDS011;52467;40.114;18.306;2023-04-09T12:57:36;2.15;;;1.48;;
42192;SDS011;52467;40.114;18.306;2023-04-09T13:00:05;2.55;;;1.58;;
42192;SDS011;52467;40.114;18.306;2023-04-09T13:02:33;1.83;;;1.30;;
42192;SDS011;52467;40.114;18.306;2023-04-09T13:05:01;2.60;;;1.20;;
42192;SDS011;52467;40.114;18.306;2023-04-09T13:07:30;2.72;;;1.02;;
42192;SDS011;52467;40.114;18.306;2023-04-09T13:09:57;2.80;;;1.35;;
42192;SDS011;52467;40.114;18.306;2023-04-09T13:12:24;1.52;;;1.00;;
42192;SDS011;52467;40.114;18.306;2023-04-09T13:14:53;1.38;;;0.95;;
42192;SDS011;52467;40.114;18.306;2023-04-09T13:17:20;2.30;;;1.05;;
42192;SDS011;52467;40.114;18.306;2023-04-09T13:19:49;3.58;;;1.20;;
42192;SDS011;52467;40.114;18.306;2023-04-09T13:22:17;2.25;;;1.27;;
42192;SDS011;52467;40.114;18.306;2023-04-09T13:24:45;2.75;;;1.20;;
42192;SDS011;52467;40.114;18.306;2023-04-09T13:27:12;2.17;;;1.10;;
42192;SDS011;52467;40.114;18.306;2023-04-09T13:29:40;3.10;;;1.20;;
42192;SDS011;52467;40.114;18.306;2023-04-09T13:32:07;3.70;;;1.65;;
42192;SDS011;52467;40.114;18.306;2023-04-09T13:34:37;3.22;;;2.00;;
42192;SDS011;52467;40.114;18.306;2023-04-09T13:37:05;4.85;;;1.80;;
42192;SDS011;52467;40.114;18.306;2023-04-09T13:39:32;3.22;;;1.48;;
42192;SDS011;52467;40.114;18.306;2023-04-09T13:42:00;1.60;;;1.10;;
42192;SDS011;52467;40.114;18.306;2023-04-09T13:44:29;3.00;;;1.10;;
42192;SDS011;52467;40.114;18.306;2023-04-09T13:46:56;2.05;;;1.20;;
42192;SDS011;52467;40.114;18.306;2023-04-09T13:49:24;1.83;;;1.38;;
42192;SDS011;52467;40.114;18.306;2023-04-09T13:51:52;3.53;;;1.30;;
42192;SDS011;52467;40.114;18.306;2023-04-09T13:54:21;3.88;;;1.67;;
42192;SDS011;52467;40.114;18.306;2023-04-09T13:56:49;5.18;;;1.92;;
42192;SDS011;52467;40.114;18.306;2023-04-09T13:59:16;4.18;;;1.58;;
42192;SDS011;52467;40.114;18.306;2023-04-09T14:01:44;3.47;;;1.77;;
42192;SDS011;52467;40.114;18.306;2023-04-09T14:04:12;4.68;;;1.73;;
42192;SDS011;52467;40.114;18.306;2023-04-09T14:06:39;3.42;;;1.55;;
42192;SDS011;52467;40.114;18.306;2023-04-09T14:09:08;3.08;;;1.67;;
42192;SDS011;52467;40.114;18.306;2023-04-09T14:11:36;2.90;;;1.50;;
42192;SDS011;52467;40.114;18.306;2023-04-09T14:14:04;2.95;;;2.00;;
42192;SDS011;52467;40.114;18.306;2023-04-09T14:16:31;3.38;;;1.55;;
42192;SDS011;52467;40.114;18.306;2023-04-09T14:18:59;2.42;;;1.42;;
42192;SDS011;52467;40.114;18.306;2023-04-09T14:21:27;2.25;;;1.50;;
42192;SDS011;52467;40.114;18.306;2023-04-09T14:23:55;4.70;;;1.50;;
42192;SDS011;52467;40.114;18.306;2023-04-09T14:26:22;4.03;;;1.73;;
42192;SDS011;52467;40.114;18.306;2023-04-09T14:28:50;4.00;;;1.50;;
42192;SDS011;52467;40.114;18.306;2023-04-09T14:31:17;4.07;;;1.60;;
42192;SDS011;52467;40.114;18.306;2023-04-09T14:33:47;2.47;;;1.42;;
42192;SDS011;52467;40.114;18.306;2023-04-09T14:36:15;3.33;;;1.80;;
42192;SDS011;52467;40.114;18.306;2023-04-09T14:38:43;3.20;;;1.67;;
42192;SDS011;52467;40.114;18.306;2023-04-09T14:41:10;4.10;;;1.80;;
42192;SDS011;52467;40.114;18.306;2023-04-09T14:43:37;3.80;;;2.00;;
42192;SDS011;52467;40.114;18.306;2023-04-09T14:46:05;2.08;;;1.30;;
42192;SDS011;52467;40.114;18.306;2023-04-09T14:48:37;1.60;;;1.40;;
42192;SDS011;52467;40.114;18.306;2023-04-09T14:51:08;3.73;;;1.60;;
42192;SDS011;52467;40.114;18.306;2023-04-09T14:53:36;3.33;;;1.50;;
42192;SDS011;52467;40.114;18.306;2023-04-09T14:56:04;2.05;;;1.05;;
42192;SDS011;52467;40.114;18.306;2023-04-09T14:58:32;2.03;;;1.30;;
42192;SDS011;52467;40.114;18.306;2023-04-09T15:00:59;2.43;;;1.33;;
42192;SDS011;52467;40.114;18.306;2023-04-09T15:03:27;2.80;;;1.20;;